Capon Springs, West Virginia
Current Conditions -  °F | °C
As of 2:55 PM on Friday 24 Oct 2014 (Local Time) from KOKV Reporting Station
Clear Clear  
Wind Chill: 66°   Ceiling: Unl
Heat Index: 66°   Visibility: 10mi
Dew Point: 30°   Wind: 14mph
Humidity: 26%   Direction: 310°NW
Pressure: 29.95"   Gusts: NA
Location:  39.14°N, 78.48°W
Report Text: KOKV 241855Z AUTO 31012KT 10SM CLR 19/M01 A2995 RMK AO2
Loading
Personal Weather Stations






























Interactive Weather Map
Tropical Storm Tracking
New forecast layout! Learn more

10-Day Weather Forecast

Advertisements
Track Severe Weather on mobile